createdAt,value
2023-01-13T00:00:33.197Z,98537.00
2023-01-13T00:02:59.826Z,98526.00
2023-01-13T00:05:26.793Z,98534.19
2023-01-13T00:07:53.448Z,98529.09
2023-01-13T00:10:19.929Z,98530.03
2023-01-13T00:12:46.488Z,98524.31
2023-01-13T00:15:13.462Z,98528.22
2023-01-13T00:17:40.002Z,98526.09
2023-01-13T00:20:07.577Z,98515.44
2023-01-13T00:22:35.112Z,98529.34
2023-01-13T00:25:04.190Z,98521.78
2023-01-13T00:27:31.569Z,98517.78
2023-01-13T00:29:58.200Z,98517.66
2023-01-13T00:32:24.819Z,98513.44
2023-01-13T00:34:51.495Z,98510.97
2023-01-13T00:37:18.050Z,98514.16
2023-01-13T00:39:45.739Z,98509.69
2023-01-13T00:42:31.314Z,98498.47
2023-01-13T00:44:57.784Z,98497.75
2023-01-13T00:47:24.312Z,98495.63
2023-01-13T00:49:50.809Z,98490.03
2023-01-13T00:52:17.314Z,98500.50
2023-01-13T00:54:43.803Z,98494.53
2023-01-13T00:57:10.380Z,98489.72
2023-01-13T00:59:36.896Z,98484.91
2023-01-13T01:02:03.510Z,98495.66
2023-01-13T01:04:30.074Z,98495.75
2023-01-13T01:06:56.595Z,98481.75
2023-01-13T01:09:23.081Z,98480.94
2023-01-13T01:11:49.565Z,98467.41
2023-01-13T01:14:16.071Z,98474.06
2023-01-13T01:16:42.548Z,98462.03
2023-01-13T01:19:10.408Z,98471.09
2023-01-13T01:21:36.978Z,98468.88
2023-01-13T01:24:04.439Z,98475.28
2023-01-13T01:26:31.944Z,98478.66
2023-01-13T01:28:58.954Z,98482.69
2023-01-13T01:31:31.638Z,98480.75
2023-01-13T01:33:58.804Z,98475.88
2023-01-13T01:36:26.829Z,98490.72
2023-01-13T01:38:53.351Z,98489.47
2023-01-13T01:41:25.195Z,98503.16
2023-01-13T01:44:04.426Z,98504.56
2023-01-13T01:46:37.932Z,98500.31
2023-01-13T01:49:13.933Z,98494.63
2023-01-13T01:51:50.331Z,98510.06
2023-01-13T01:54:22.058Z,98504.78
2023-01-13T01:56:49.164Z,98513.78
2023-01-13T01:59:16.168Z,98514.44
2023-01-13T02:01:43.920Z,98505.28
2023-01-13T02:04:23.510Z,98500.97
2023-01-13T02:06:50.909Z,98498.41
2023-01-13T02:09:17.708Z,98493.16
2023-01-13T02:12:02.491Z,98499.00
2023-01-13T02:14:30.605Z,98485.25
2023-01-13T02:17:21.535Z,98488.16
2023-01-13T02:20:16.049Z,98487.13
2023-01-13T02:23:06.991Z,98491.81
2023-01-13T02:26:16.980Z,98481.06
2023-01-13T02:29:24.062Z,98470.59
2023-01-13T02:31:59.551Z,98465.22
2023-01-13T02:35:02.491Z,98456.25
2023-01-13T02:37:33.485Z,98460.19
2023-01-13T02:40:03.197Z,98456.34
2023-01-13T02:42:53.832Z,98451.66
2023-01-13T02:45:32.249Z,98450.19
2023-01-13T02:48:00.986Z,98445.44
2023-01-13T02:50:35.471Z,98457.19
2023-01-13T02:53:08.405Z,98448.94
2023-01-13T02:55:39.513Z,98445.53
2023-01-13T02:58:10.591Z,98450.44
2023-01-13T03:00:37.955Z,98439.22
2023-01-13T03:03:04.768Z,98436.75
2023-01-13T03:05:33.084Z,98441.22
2023-01-13T03:08:15.767Z,98442.94
2023-01-13T03:11:05.938Z,98437.41
2023-01-13T03:14:11.802Z,98443.59
2023-01-13T03:16:38.459Z,98439.75
2023-01-13T03:19:15.233Z,98432.78
2023-01-13T03:22:07.709Z,98427.72
2023-01-13T03:24:47.549Z,98431.69
2023-01-13T03:27:30.141Z,98423.91
2023-01-13T03:30:30.906Z,98418.03
2023-01-13T03:33:04.688Z,98414.78
2023-01-13T03:35:36.725Z,98414.28
2023-01-13T03:38:09.027Z,98417.22
2023-01-13T03:40:44.091Z,98408.69
2023-01-13T03:43:35.155Z,98411.88
2023-01-13T03:46:08.706Z,98402.25
2023-01-13T03:48:40.576Z,98402.56
2023-01-13T03:51:11.724Z,98403.31
2023-01-13T03:53:43.147Z,98400.75
2023-01-13T03:56:15.637Z,98405.25
2023-01-13T03:58:47.030Z,98410.06
2023-01-13T04:01:20.991Z,98383.78
2023-01-13T04:04:01.380Z,98394.03
2023-01-13T04:06:30.888Z,98404.34
2023-01-13T04:09:11.776Z,98380.78
2023-01-13T04:11:44.454Z,98408.44
2023-01-13T04:14:13.053Z,98400.81
2023-01-13T04:16:40.265Z,98390.06
2023-01-13T04:19:06.705Z,98395.91
2023-01-13T04:21:35.058Z,98396.75
2023-01-13T04:24:01.571Z,98391.38
2023-01-13T04:26:28.080Z,98390.31
2023-01-13T04:28:55.485Z,98390.81
2023-01-13T04:31:22.142Z,98397.94
2023-01-13T04:33:48.756Z,98399.00
2023-01-13T04:36:15.752Z,98392.56
2023-01-13T04:38:42.263Z,98403.00
2023-01-13T04:41:08.781Z,98397.63
2023-01-13T04:43:35.296Z,98394.84
2023-01-13T04:46:01.896Z,98389.47
2023-01-13T04:48:28.460Z,98392.88
2023-01-13T04:50:54.944Z,98388.00
2023-01-13T04:53:21.469Z,98387.53
2023-01-13T04:55:49.699Z,98396.13
2023-01-13T04:58:16.321Z,98391.13
2023-01-13T05:00:42.840Z,98391.34
2023-01-13T05:03:09.482Z,98388.44
2023-01-13T05:05:36.239Z,98392.47
2023-01-13T05:08:02.722Z,98389.13
2023-01-13T05:10:29.243Z,98390.75
2023-01-13T05:13:14.705Z,98392.41
2023-01-13T05:16:00.609Z,98402.66
2023-01-13T05:18:29.392Z,98398.59
2023-01-13T05:20:55.869Z,98396.59
2023-01-13T05:23:40.847Z,98393.91
2023-01-13T05:26:07.534Z,98393.91
2023-01-13T05:28:34.857Z,98390.69
2023-01-13T05:31:01.594Z,98402.56
2023-01-13T05:33:28.399Z,98388.56
2023-01-13T05:35:54.996Z,98405.25
2023-01-13T05:38:21.546Z,98403.38
2023-01-13T05:41:06.597Z,98401.00
2023-01-13T05:43:34.861Z,98402.31
2023-01-13T05:46:01.470Z,98399.63
2023-01-13T05:48:48.149Z,98410.63
2023-01-13T05:51:14.601Z,98400.34
2023-01-13T05:53:41.425Z,98401.50
2023-01-13T05:56:09.211Z,98403.16
2023-01-13T05:58:35.700Z,98401.13
2023-01-13T06:01:06.937Z,98404.28
2023-01-13T06:03:33.518Z,98399.06
2023-01-13T06:06:02.293Z,98400.34
2023-01-13T06:08:29.619Z,98397.91
2023-01-13T06:10:56.434Z,98388.88
2023-01-13T06:13:25.245Z,98385.97
2023-01-13T06:15:51.815Z,98386.56
2023-01-13T06:18:18.690Z,98383.28
2023-01-13T06:20:47.094Z,98383.28
2023-01-13T06:23:13.843Z,98385.38
2023-01-13T06:25:50.790Z,98400.03
2023-01-13T06:28:17.323Z,98400.53
2023-01-13T06:30:49.534Z,98400.03
2023-01-13T06:33:23.862Z,98392.25
2023-01-13T06:36:00.342Z,98391.56
2023-01-13T06:38:30.155Z,98399.41
2023-01-13T06:40:56.749Z,98392.41
2023-01-13T06:43:23.291Z,98407.22
2023-01-13T06:45:53.022Z,98389.78
2023-01-13T06:48:25.960Z,98408.50
2023-01-13T06:50:52.533Z,98399.41
2023-01-13T06:53:20.042Z,98392.56
2023-01-13T06:55:46.908Z,98408.69
2023-01-13T06:58:13.442Z,98384.84
2023-01-13T07:00:40.035Z,98389.06
2023-01-13T07:03:12.668Z,98381.81
2023-01-13T07:05:40.169Z,98396.41
2023-01-13T07:08:07.550Z,98394.19
2023-01-13T07:10:34.501Z,98387.38
2023-01-13T07:13:21.024Z,98408.53
2023-01-13T07:15:59.222Z,98405.63
2023-01-13T07:18:31.423Z,98411.63
2023-01-13T07:21:00.446Z,98408.34
2023-01-13T07:23:29.074Z,98415.69
2023-01-13T07:25:57.146Z,98419.44
2023-01-13T07:28:24.910Z,98426.09
2023-01-13T07:30:52.093Z,98430.16
2023-01-13T07:33:19.197Z,98426.19
2023-01-13T07:35:46.721Z,98417.00
2023-01-13T07:38:13.264Z,98434.56
2023-01-13T07:40:40.578Z,98429.09
2023-01-13T07:43:25.733Z,98443.16
2023-01-13T07:45:58.862Z,98441.22
2023-01-13T07:48:27.079Z,98428.81
2023-01-13T07:50:54.221Z,98433.97
2023-01-13T07:53:21.461Z,98425.28
2023-01-13T07:55:48.357Z,98430.16
2023-01-13T07:58:14.846Z,98437.16
2023-01-13T08:00:41.378Z,98439.94
2023-01-13T08:03:07.976Z,98445.31
2023-01-13T08:05:35.486Z,98427.09
2023-01-13T08:08:02.239Z,98438.31
2023-01-13T08:10:28.815Z,98441.06
2023-01-13T08:13:13.635Z,98442.28
2023-01-13T08:15:40.126Z,98436.41
2023-01-13T08:18:06.638Z,98445.06
2023-01-13T08:20:33.147Z,98446.03
2023-01-13T08:23:00.527Z,98457.00
2023-01-13T08:25:28.860Z,98441.97
2023-01-13T08:27:56.633Z,98464.47
2023-01-13T08:30:23.350Z,98435.91
2023-01-13T08:32:50.864Z,98442.25
2023-01-13T08:35:18.261Z,98454.03
2023-01-13T08:37:45.875Z,98462.91
2023-01-13T08:40:14.304Z,98441.91
2023-01-13T08:42:41.042Z,98458.13
2023-01-13T08:45:08.679Z,98461.13
2023-01-13T08:47:35.526Z,98465.91
2023-01-13T08:50:02.189Z,98462.19
2023-01-13T08:52:30.213Z,98467.56
2023-01-13T08:54:56.986Z,98473.50
2023-01-13T08:57:23.531Z,98493.31
2023-01-13T08:59:50.110Z,98500.16
2023-01-13T09:02:20.019Z,98501.78
2023-01-13T09:04:47.156Z,98498.78
2023-01-13T09:07:13.873Z,98505.66
2023-01-13T09:09:40.446Z,98499.00
2023-01-13T09:12:29.308Z,98506.97
2023-01-13T09:14:56.012Z,98513.88
2023-01-13T09:17:23.253Z,98527.28
2023-01-13T09:19:50.219Z,98538.03
2023-01-13T09:22:19.188Z,98549.13
2023-01-13T09:24:46.729Z,98551.00
2023-01-13T09:27:15.212Z,98552.19
2023-01-13T09:29:41.757Z,98545.88
2023-01-13T09:32:12.443Z,98565.69
2023-01-13T09:34:57.685Z,98571.66
2023-01-13T09:37:24.217Z,98572.75
2023-01-13T09:39:50.793Z,98564.22
2023-01-13T09:43:04.625Z,98566.31
2023-01-13T09:45:43.541Z,98572.63
2023-01-13T09:48:10.005Z,98569.34
2023-01-13T09:50:48.841Z,98567.25
2023-01-13T09:53:25.668Z,98577.50
2023-01-13T09:55:53.004Z,98584.03
2023-01-13T09:58:19.875Z,98594.09
2023-01-13T10:00:59.040Z,98602.97
2023-01-13T10:03:30.678Z,98592.00
2023-01-13T10:06:12.853Z,98570.19
2023-01-13T10:08:41.943Z,98581.97
2023-01-13T10:11:39.048Z,98581.28
2023-01-13T10:14:39.888Z,98588.59
2023-01-13T10:17:42.968Z,98590.34
2023-01-13T10:20:22.524Z,98590.13
2023-01-13T10:23:10.408Z,98597.56
2023-01-13T10:25:55.778Z,98595.25
2023-01-13T10:28:24.024Z,98602.94
2023-01-13T10:30:50.973Z,98609.25
2023-01-13T10:33:27.672Z,98611.66
2023-01-13T10:35:57.343Z,98613.03
2023-01-13T10:38:27.130Z,98617.50
2023-01-13T10:40:59.799Z,98606.06
2023-01-13T10:43:28.153Z,98606.66
2023-01-13T10:46:06.814Z,98608.56
2023-01-13T10:48:36.270Z,98629.59
2023-01-13T10:51:23.813Z,98627.41
2023-01-13T10:54:15.630Z,98629.69
2023-01-13T10:56:45.359Z,98624.22
2023-01-13T10:59:30.077Z,98618.03
2023-01-13T11:02:16.291Z,98633.63
2023-01-13T11:04:53.281Z,98616.06
2023-01-13T11:07:28.761Z,98617.13
2023-01-13T11:10:23.497Z,98626.88
2023-01-13T11:13:09.088Z,98618.63
2023-01-13T11:15:44.663Z,98625.53
2023-01-13T11:18:24.852Z,98625.59
2023-01-13T11:20:52.972Z,98642.13
2023-01-13T11:23:34.265Z,98647.38
2023-01-13T11:26:26.519Z,98637.31
2023-01-13T11:29:04.462Z,98652.72
2023-01-13T11:31:39.768Z,98649.63
2023-01-13T11:34:31.089Z,98659.91
2023-01-13T11:37:00.685Z,98643.28
2023-01-13T11:39:49.705Z,98651.81
2023-01-13T11:42:25.768Z,98663.59
2023-01-13T11:45:14.657Z,98652.53
2023-01-13T11:47:41.140Z,98637.19
2023-01-13T11:50:34.547Z,98642.19
2023-01-13T11:53:30.472Z,98638.16
2023-01-13T11:56:35.409Z,98639.13
2023-01-13T11:59:10.549Z,98646.53
2023-01-13T12:02:14.038Z,98655.03
2023-01-13T12:05:18.073Z,98650.97
2023-01-13T12:07:59.898Z,98644.59
2023-01-13T12:11:04.052Z,98635.31
2023-01-13T12:13:39.626Z,98639.84
2023-01-13T12:16:27.637Z,98642.22
2023-01-13T12:19:15.108Z,98645.88
2023-01-13T12:21:56.881Z,98641.47
2023-01-13T12:24:29.984Z,98641.81
2023-01-13T12:27:05.201Z,98646.16
2023-01-13T12:29:35.820Z,98650.22
2023-01-13T12:32:05.530Z,98647.06
2023-01-13T12:34:54.445Z,98652.50
2023-01-13T12:37:26.997Z,98653.88
2023-01-13T12:39:56.595Z,98651.00
2023-01-13T12:43:36.149Z,98644.84
2023-01-13T12:46:23.949Z,98654.06
2023-01-13T12:48:58.099Z,98642.78
2023-01-13T12:51:28.666Z,98648.66
2023-01-13T12:53:56.534Z,98656.59
2023-01-13T12:56:44.846Z,98654.09
2023-01-13T12:59:32.545Z,98662.84
2023-01-13T13:02:11.016Z,98639.72
2023-01-13T13:04:51.263Z,98642.09
2023-01-13T13:07:26.722Z,98638.31
2023-01-13T13:09:59.807Z,98652.56
2023-01-13T13:13:11.883Z,98638.91
2023-01-13T13:15:38.945Z,98625.25
2023-01-13T13:18:06.190Z,98631.63
2023-01-13T13:20:57.665Z,98636.47
2023-01-13T13:23:53.144Z,98636.84
2023-01-13T13:26:23.910Z,98635.09
2023-01-13T13:28:56.159Z,98636.09
2023-01-13T13:31:51.654Z,98659.44
2023-01-13T13:34:26.919Z,98641.41
2023-01-13T13:37:29.868Z,98646.34
2023-01-13T13:40:15.595Z,98647.97
2023-01-13T13:43:03.562Z,98648.53
2023-01-13T13:45:49.770Z,98649.50
2023-01-13T13:48:30.709Z,98649.00
2023-01-13T13:51:04.155Z,98645.59
2023-01-13T13:53:34.441Z,98636.50
2023-01-13T13:56:03.104Z,98634.31
2023-01-13T13:58:34.030Z,98625.34
2023-01-13T14:01:00.909Z,98650.63
2023-01-13T14:03:34.061Z,98650.97
2023-01-13T14:06:03.469Z,98666.66
2023-01-13T14:08:38.715Z,98677.00
2023-01-13T14:11:26.358Z,98684.63
2023-01-13T14:14:07.104Z,98689.84
2023-01-13T14:16:36.274Z,98707.13
2023-01-13T14:19:03.234Z,98721.53
2023-01-13T14:21:30.847Z,98724.69
2023-01-13T14:24:15.788Z,98724.59
2023-01-13T14:26:42.340Z,98735.78
2023-01-13T14:29:17.426Z,98742.91
2023-01-13T14:31:45.114Z,98752.03
2023-01-13T14:34:32.095Z,98811.16
2023-01-13T14:37:00.831Z,98796.03
2023-01-13T14:39:39.960Z,98791.38
2023-01-13T14:42:12.881Z,98787.59
2023-01-13T14:44:47.503Z,98786.69
2023-01-13T14:47:24.704Z,98792.88
2023-01-13T14:50:02.312Z,98795.03
2023-01-13T14:52:33.179Z,98794.56
2023-01-13T14:55:05.905Z,98802.47
2023-01-13T14:57:37.083Z,98793.38
2023-01-13T15:00:15.870Z,98797.13
2023-01-13T15:02:53.659Z,98802.09
2023-01-13T15:05:20.166Z,98807.16
2023-01-13T15:07:59.141Z,98819.81
2023-01-13T15:10:29.234Z,98824.34
2023-01-13T15:12:57.760Z,98829.28
2023-01-13T15:15:29.195Z,98827.97
2023-01-13T15:17:56.344Z,98830.75
2023-01-13T15:20:24.825Z,98826.44
2023-01-13T15:22:52.609Z,98830.75
2023-01-13T15:25:20.121Z,98832.41
2023-01-13T15:27:50.729Z,98829.84
2023-01-13T15:30:24.957Z,98822.06
2023-01-13T15:32:52.907Z,98834.47
2023-01-13T15:35:20.161Z,98823.19
2023-01-13T15:37:48.558Z,98829.34
2023-01-13T15:40:22.013Z,98837.16
2023-01-13T15:43:07.163Z,98849.28
2023-01-13T15:45:54.799Z,98858.16
2023-01-13T15:48:23.166Z,98856.06
2023-01-13T15:50:49.928Z,98865.47
2023-01-13T15:53:16.923Z,98862.84
2023-01-13T15:55:46.340Z,98855.09
2023-01-13T15:58:14.035Z,98857.41
2023-01-13T16:00:42.026Z,98858.59
2023-01-13T16:03:16.258Z,98863.38
2023-01-13T16:05:44.513Z,98872.38
2023-01-13T16:08:17.778Z,98874.47
2023-01-13T16:10:45.207Z,98871.78
2023-01-13T16:13:13.154Z,98886.06
2023-01-13T16:15:43.913Z,98896.03
2023-01-13T16:18:17.524Z,98896.03
2023-01-13T16:20:44.459Z,98888.31
2023-01-13T16:23:11.949Z,98904.41
2023-01-13T16:25:39.657Z,98906.06
2023-01-13T16:28:06.802Z,98897.84
2023-01-13T16:30:36.936Z,98914.78
2023-01-13T16:33:03.893Z,98916.38
2023-01-13T16:35:32.277Z,98923.28
2023-01-13T16:37:59.814Z,98938.13
2023-01-13T16:40:31.211Z,98947.16
2023-01-13T16:42:57.974Z,98949.31
2023-01-13T16:45:24.963Z,98949.31
2023-01-13T16:47:51.498Z,98956.72
2023-01-13T16:50:19.968Z,98954.94
2023-01-13T16:52:47.557Z,98960.28
2023-01-13T16:55:14.313Z,98964.50
2023-01-13T16:57:41.108Z,98964.66
2023-01-13T17:00:09.717Z,98972.22
2023-01-13T17:02:36.511Z,98969.38
2023-01-13T17:05:03.107Z,98979.66
2023-01-13T17:07:29.580Z,98968.94
2023-01-13T17:09:56.031Z,98968.69
2023-01-13T17:12:22.530Z,98965.59
2023-01-13T17:14:49.040Z,98969.53
2023-01-13T17:17:24.485Z,98983.31
2023-01-13T17:19:52.022Z,98987.19
2023-01-13T17:22:19.536Z,98984.56
2023-01-13T17:24:48.627Z,98987.44
2023-01-13T17:27:17.253Z,98985.78
2023-01-13T17:29:43.918Z,98983.13
2023-01-13T17:32:22.959Z,98987.03
2023-01-13T17:34:50.129Z,98991.56
2023-01-13T17:37:17.275Z,99002.88
2023-01-13T17:39:46.399Z,98997.28
2023-01-13T17:42:13.289Z,99008.25
2023-01-13T17:44:39.999Z,99007.63
2023-01-13T17:47:06.708Z,99018.34
2023-01-13T17:49:33.214Z,99017.13
2023-01-13T17:51:59.960Z,99014.06
2023-01-13T17:54:26.434Z,99020.41
2023-01-13T17:56:53.023Z,99026.00
2023-01-13T17:59:20.249Z,99028.03
2023-01-13T18:01:46.992Z,99030.50
2023-01-13T18:04:22.096Z,99024.53
2023-01-13T18:06:49.471Z,99032.75
2023-01-13T18:09:16.963Z,99031.56
2023-01-13T18:11:44.229Z,99038.13
2023-01-13T18:14:12.245Z,99038.50
2023-01-13T18:16:39.245Z,99047.59
2023-01-13T18:19:24.921Z,99045.91
2023-01-13T18:22:09.798Z,99041.97
2023-01-13T18:24:55.272Z,99040.31
2023-01-13T18:27:32.215Z,99056.53
2023-01-13T18:30:00.792Z,99057.94
2023-01-13T18:32:32.877Z,99064.94
2023-01-13T18:35:06.210Z,99069.91
2023-01-13T18:37:35.957Z,99075.47
2023-01-13T18:40:05.236Z,99072.53
2023-01-13T18:42:50.257Z,99081.25
2023-01-13T18:45:18.382Z,99074.47
2023-01-13T18:47:44.850Z,99054.50
2023-01-13T18:50:14.405Z,99070.91
2023-01-13T18:52:41.399Z,99109.94
2023-01-13T18:55:08.335Z,99126.44
2023-01-13T18:57:39.508Z,99124.56
2023-01-13T19:00:12.545Z,99118.63
2023-01-13T19:02:39.516Z,99113.09
2023-01-13T19:05:06.728Z,99107.34
2023-01-13T19:07:35.578Z,99122.41
2023-01-13T19:10:04.535Z,99118.28
2023-01-13T19:12:31.608Z,99123.00
2023-01-13T19:14:59.073Z,99124.66
2023-01-13T19:17:29.837Z,99131.66
2023-01-13T19:19:57.427Z,99142.16
2023-01-13T19:22:30.291Z,99136.63
2023-01-13T19:24:57.751Z,99146.47
2023-01-13T19:27:24.544Z,99149.53
2023-01-13T19:29:52.781Z,99155.50
2023-01-13T19:32:22.503Z,99140.06
2023-01-13T19:34:50.773Z,99144.00
2023-01-13T19:37:18.081Z,99141.31
2023-01-13T19:39:44.614Z,99153.03
2023-01-13T19:42:30.426Z,99155.31
2023-01-13T19:45:15.393Z,99156.78
2023-01-13T19:47:43.810Z,99149.34
2023-01-13T19:50:10.951Z,99155.53
2023-01-13T19:52:37.543Z,99154.72
2023-01-13T19:55:04.225Z,99156.97
2023-01-13T19:57:30.733Z,99169.13
2023-01-13T19:59:57.445Z,99161.47
2023-01-13T20:02:31.563Z,99171.97
2023-01-13T20:05:00.389Z,99163.31
2023-01-13T20:07:29.424Z,99179.38
2023-01-13T20:09:56.530Z,99163.97
2023-01-13T20:12:24.513Z,99167.44
2023-01-13T20:14:51.541Z,99179.81
2023-01-13T20:17:19.993Z,99172.00
2023-01-13T20:19:46.849Z,99178.41
2023-01-13T20:22:14.000Z,99181.47
2023-01-13T20:24:40.503Z,99182.72
2023-01-13T20:27:07.479Z,99168.09
2023-01-13T20:29:34.072Z,99173.28
2023-01-13T20:32:00.628Z,99171.22
2023-01-13T20:34:27.690Z,99179.88
2023-01-13T20:36:54.273Z,99179.44
2023-01-13T20:39:26.553Z,99166.91
2023-01-13T20:42:12.314Z,99174.09
2023-01-13T20:44:39.041Z,99179.03
2023-01-13T20:47:05.856Z,99182.53
2023-01-13T20:49:32.947Z,99183.78
2023-01-13T20:51:59.634Z,99177.59
2023-01-13T20:54:26.438Z,99187.28
2023-01-13T20:56:53.850Z,99191.41
2023-01-13T20:59:20.429Z,99185.63
2023-01-13T21:01:47.027Z,99188.09
2023-01-13T21:04:13.529Z,99193.25
2023-01-13T21:06:41.596Z,99192.63
2023-01-13T21:09:08.950Z,99195.91
2023-01-13T21:11:54.019Z,99194.25
2023-01-13T21:14:46.833Z,99197.38
2023-01-13T21:17:34.027Z,99186.84
2023-01-13T21:20:04.131Z,99183.78
2023-01-13T21:22:31.588Z,99182.31
2023-01-13T21:24:58.931Z,99180.44
2023-01-13T21:27:25.833Z,99178.84
2023-01-13T21:29:52.407Z,99177.59
2023-01-13T21:32:19.041Z,99175.34
2023-01-13T21:34:45.608Z,99172.88
2023-01-13T21:37:12.259Z,99174.16
2023-01-13T21:39:38.729Z,99167.16
2023-01-13T21:42:23.611Z,99170.84
2023-01-13T21:45:08.530Z,99165.47
2023-01-13T21:47:50.293Z,99166.13
2023-01-13T21:50:19.748Z,99156.25
2023-01-13T21:52:47.956Z,99160.56
2023-01-13T21:55:25.500Z,99169.59
2023-01-13T21:58:08.836Z,99174.97
2023-01-13T22:00:35.332Z,99175.38
2023-01-13T22:03:06.620Z,99175.97
2023-01-13T22:05:33.382Z,99167.56
2023-01-13T22:07:59.866Z,99174.13
2023-01-13T22:10:28.662Z,99171.88
2023-01-13T22:12:57.192Z,99165.09
2023-01-13T22:15:26.965Z,99189.78
2023-01-13T22:17:54.732Z,99193.47
2023-01-13T22:20:22.104Z,99192.03
2023-01-13T22:22:48.856Z,99202.13
2023-01-13T22:25:17.234Z,99205.03
2023-01-13T22:27:44.817Z,99202.94
2023-01-13T22:30:15.720Z,99203.34
2023-01-13T22:32:42.427Z,99210.38
2023-01-13T22:35:10.946Z,99209.09
2023-01-13T22:37:38.711Z,99216.09
2023-01-13T22:40:07.299Z,99221.25
2023-01-13T22:42:38.210Z,99220.25
2023-01-13T22:45:07.232Z,99216.94
2023-01-13T22:47:34.560Z,99218.59
2023-01-13T22:50:01.110Z,99221.47
2023-01-13T22:52:28.669Z,99215.47
2023-01-13T22:54:55.174Z,99193.25
2023-01-13T22:57:21.956Z,99217.75
2023-01-13T22:59:50.264Z,99205.00
2023-01-13T23:02:16.811Z,99213.44
2023-01-13T23:04:43.507Z,99211.81
2023-01-13T23:07:10.013Z,99223.94
2023-01-13T23:09:36.524Z,99219.63
2023-01-13T23:12:03.091Z,99222.50
2023-01-13T23:14:29.581Z,99221.88
2023-01-13T23:16:56.084Z,99223.09
2023-01-13T23:19:22.671Z,99226.41
2023-01-13T23:21:49.268Z,99219.63
2023-01-13T23:24:15.761Z,99223.50
2023-01-13T23:26:42.303Z,99231.13
2023-01-13T23:29:12.142Z,99233.81
2023-01-13T23:31:38.820Z,99226.41
2023-01-13T23:34:05.455Z,99221.06
2023-01-13T23:36:32.373Z,99224.75
2023-01-13T23:38:59.815Z,99226.41
2023-01-13T23:41:27.874Z,99219.41
2023-01-13T23:43:57.599Z,99219.38
2023-01-13T23:46:25.219Z,99218.38
2023-01-13T23:48:52.087Z,99214.69
2023-01-13T23:51:21.315Z,99205.63
2023-01-13T23:53:50.088Z,99198.41
2023-01-13T23:56:28.559Z,99202.94
2023-01-13T23:58:55.682Z,99199.84
